sensor_id;sensor_type;location;lat;lon;timestamp;temperature;humidity
14411;DHT22;7290;50.854;4.354;2023-04-24T00:02:17;11.00;99.90
14411;DHT22;7290;50.854;4.354;2023-04-24T00:04:44;10.80;99.90
14411;DHT22;7290;50.854;4.354;2023-04-24T00:07:11;10.60;99.90
14411;DHT22;7290;50.854;4.354;2023-04-24T00:09:37;10.70;99.90
14411;DHT22;7290;50.854;4.354;2023-04-24T00:12:03;10.80;99.90
14411;DHT22;7290;50.854;4.354;2023-04-24T00:14:30;10.70;99.90
14411;DHT22;7290;50.854;4.354;2023-04-24T00:16:56;10.60;99.90
14411;DHT22;7290;50.854;4.354;2023-04-24T00:19:22;10.50;99.90
14411;DHT22;7290;50.854;4.354;2023-04-24T00:21:49;10.50;99.90
14411;DHT22;7290;50.854;4.354;2023-04-24T00:24:15;10.50;99.90
14411;DHT22;7290;50.854;4.354;2023-04-24T00:26:41;10.40;99.90
14411;DHT22;7290;50.854;4.354;2023-04-24T00:29:08;10.40;99.90
14411;DHT22;7290;50.854;4.354;2023-04-24T00:31:34;10.30;99.90
14411;DHT22;7290;50.854;4.354;2023-04-24T00:34:00;10.20;99.90
14411;DHT22;7290;50.854;4.354;2023-04-24T00:36:26;10.30;99.90
14411;DHT22;7290;50.854;4.354;2023-04-24T00:38:53;10.30;99.90
14411;DHT22;7290;50.854;4.354;2023-04-24T00:41:19;10.30;99.90
14411;DHT22;7290;50.854;4.354;2023-04-24T00:43:46;10.30;99.90
14411;DHT22;7290;50.854;4.354;2023-04-24T00:46:12;10.20;99.90
14411;DHT22;7290;50.854;4.354;2023-04-24T00:48:39;10.30;99.90
14411;DHT22;7290;50.854;4.354;2023-04-24T00:51:06;10.40;99.90
14411;DHT22;7290;50.854;4.354;2023-04-24T00:53:32;10.30;99.90
14411;DHT22;7290;50.854;4.354;2023-04-24T00:56:00;10.40;99.90
14411;DHT22;7290;50.854;4.354;2023-04-24T00:58:26;10.30;99.90
14411;DHT22;7290;50.854;4.354;2023-04-24T01:00:52;10.30;99.90
14411;DHT22;7290;50.854;4.354;2023-04-24T01:03:21;10.30;99.90
14411;DHT22;7290;50.854;4.354;2023-04-24T01:05:48;10.30;99.90
14411;DHT22;7290;50.854;4.354;2023-04-24T01:08:15;10.30;99.90
14411;DHT22;7290;50.854;4.354;2023-04-24T01:10:41;10.40;99.90
14411;DHT22;7290;50.854;4.354;2023-04-24T01:13:08;10.40;99.90
14411;DHT22;7290;50.854;4.354;2023-04-24T01:15:34;10.30;99.90
14411;DHT22;7290;50.854;4.354;2023-04-24T01:18:00;10.40;99.90
14411;DHT22;7290;50.854;4.354;2023-04-24T01:20:27;10.40;99.90
14411;DHT22;7290;50.854;4.354;2023-04-24T01:22:56;10.40;99.90
14411;DHT22;7290;50.854;4.354;2023-04-24T01:25:22;10.30;99.90
14411;DHT22;7290;50.854;4.354;2023-04-24T01:27:49;10.20;99.90
14411;DHT22;7290;50.854;4.354;2023-04-24T01:30:15;10.00;99.90
14411;DHT22;7290;50.854;4.354;2023-04-24T01:32:42;10.10;99.90
14411;DHT22;7290;50.854;4.354;2023-04-24T01:35:09;10.20;99.90
14411;DHT22;7290;50.854;4.354;2023-04-24T01:37:36;10.10;99.90
14411;DHT22;7290;50.854;4.354;2023-04-24T01:40:04;10.10;99.90
14411;DHT22;7290;50.854;4.354;2023-04-24T01:42:30;10.20;99.90
14411;DHT22;7290;50.854;4.354;2023-04-24T01:44:57;10.30;99.90
14411;DHT22;7290;50.854;4.354;2023-04-24T01:47:23;10.30;99.90
14411;DHT22;7290;50.854;4.354;2023-04-24T01:49:50;10.10;99.90
14411;DHT22;7290;50.854;4.354;2023-04-24T01:52:16;10.00;99.90
14411;DHT22;7290;50.854;4.354;2023-04-24T01:54:44;10.00;99.90
14411;DHT22;7290;50.854;4.354;2023-04-24T01:57:11;10.00;99.90
14411;DHT22;7290;50.854;4.354;2023-04-24T01:59:37;10.10;99.90
14411;DHT22;7290;50.854;4.354;2023-04-24T02:02:03;10.10;99.90
14411;DHT22;7290;50.854;4.354;2023-04-24T02:04:29;10.20;99.90
14411;DHT22;7290;50.854;4.354;2023-04-24T02:06:55;10.30;99.90
14411;DHT22;7290;50.854;4.354;2023-04-24T02:09:21;10.20;99.90
14411;DHT22;7290;50.854;4.354;2023-04-24T02:11:47;10.10;99.90
14411;DHT22;7290;50.854;4.354;2023-04-24T02:14:14;10.00;99.90
14411;DHT22;7290;50.854;4.354;2023-04-24T02:16:40;10.10;99.90
14411;DHT22;7290;50.854;4.354;2023-04-24T02:19:06;10.00;99.90
14411;DHT22;7290;50.854;4.354;2023-04-24T02:21:33;10.00;99.90
14411;DHT22;7290;50.854;4.354;2023-04-24T02:23:59;9.90;99.90
14411;DHT22;7290;50.854;4.354;2023-04-24T02:26:26;10.00;99.90
14411;DHT22;7290;50.854;4.354;2023-04-24T02:28:52;10.00;99.90
14411;DHT22;7290;50.854;4.354;2023-04-24T02:31:18;9.90;99.90
14411;DHT22;7290;50.854;4.354;2023-04-24T02:33:45;9.90;99.90
14411;DHT22;7290;50.854;4.354;2023-04-24T02:36:11;9.90;99.90
14411;DHT22;7290;50.854;4.354;2023-04-24T02:38:37;9.90;99.90
14411;DHT22;7290;50.854;4.354;2023-04-24T02:41:03;9.90;99.90
14411;DHT22;7290;50.854;4.354;2023-04-24T02:43:31;9.90;99.90
14411;DHT22;7290;50.854;4.354;2023-04-24T02:45:57;9.90;99.90
14411;DHT22;7290;50.854;4.354;2023-04-24T02:48:24;9.90;99.90
14411;DHT22;7290;50.854;4.354;2023-04-24T02:50:50;9.90;99.90
14411;DHT22;7290;50.854;4.354;2023-04-24T02:53:16;10.00;99.90
14411;DHT22;7290;50.854;4.354;2023-04-24T02:55:42;10.00;99.90
14411;DHT22;7290;50.854;4.354;2023-04-24T02:58:08;9.90;99.90
14411;DHT22;7290;50.854;4.354;2023-04-24T03:00:35;9.90;99.90
14411;DHT22;7290;50.854;4.354;2023-04-24T03:03:01;9.90;99.90
14411;DHT22;7290;50.854;4.354;2023-04-24T03:05:28;9.80;99.90
14411;DHT22;7290;50.854;4.354;2023-04-24T03:07:56;9.80;99.90
14411;DHT22;7290;50.854;4.354;2023-04-24T03:10:22;9.90;99.90
14411;DHT22;7290;50.854;4.354;2023-04-24T03:12:48;9.80;99.90
14411;DHT22;7290;50.854;4.354;2023-04-24T03:15:14;9.80;99.90
14411;DHT22;7290;50.854;4.354;2023-04-24T03:17:41;9.80;99.90
14411;DHT22;7290;50.854;4.354;2023-04-24T03:20:08;9.70;99.90
14411;DHT22;7290;50.854;4.354;2023-04-24T03:22:35;9.70;99.90
14411;DHT22;7290;50.854;4.354;2023-04-24T03:25:01;9.80;99.90
14411;DHT22;7290;50.854;4.354;2023-04-24T03:27:27;9.80;99.90
14411;DHT22;7290;50.854;4.354;2023-04-24T03:29:54;9.80;99.90
14411;DHT22;7290;50.854;4.354;2023-04-24T03:32:21;9.70;99.90
14411;DHT22;7290;50.854;4.354;2023-04-24T03:34:47;9.70;99.90
14411;DHT22;7290;50.854;4.354;2023-04-24T03:37:13;9.70;99.90
14411;DHT22;7290;50.854;4.354;2023-04-24T03:39:40;9.60;99.90
14411;DHT22;7290;50.854;4.354;2023-04-24T03:42:06;9.60;99.90
14411;DHT22;7290;50.854;4.354;2023-04-24T03:44:33;9.60;99.90
14411;DHT22;7290;50.854;4.354;2023-04-24T03:46:59;9.70;99.90
14411;DHT22;7290;50.854;4.354;2023-04-24T03:49:25;9.80;99.90
14411;DHT22;7290;50.854;4.354;2023-04-24T03:51:51;9.80;99.90
14411;DHT22;7290;50.854;4.354;2023-04-24T03:54:18;9.90;99.90
14411;DHT22;7290;50.854;4.354;2023-04-24T03:56:45;10.00;99.90
14411;DHT22;7290;50.854;4.354;2023-04-24T03:59:11;10.00;99.90
14411;DHT22;7290;50.854;4.354;2023-04-24T04:01:37;10.00;99.90
14411;DHT22;7290;50.854;4.354;2023-04-24T04:04:03;10.10;99.90
14411;DHT22;7290;50.854;4.354;2023-04-24T04:06:29;10.10;99.90
14411;DHT22;7290;50.854;4.354;2023-04-24T04:08:56;10.20;99.90
14411;DHT22;7290;50.854;4.354;2023-04-24T04:11:22;10.20;99.90
14411;DHT22;7290;50.854;4.354;2023-04-24T04:13:49;10.20;99.90
14411;DHT22;7290;50.854;4.354;2023-04-24T04:16:15;10.30;99.90
14411;DHT22;7290;50.854;4.354;2023-04-24T04:18:42;10.30;99.90
14411;DHT22;7290;50.854;4.354;2023-04-24T04:21:08;10.20;99.90
14411;DHT22;7290;50.854;4.354;2023-04-24T04:23:34;10.10;99.90
14411;DHT22;7290;50.854;4.354;2023-04-24T04:26:00;10.00;99.90
14411;DHT22;7290;50.854;4.354;2023-04-24T04:28:26;10.00;99.90
14411;DHT22;7290;50.854;4.354;2023-04-24T04:30:53;10.00;99.90
14411;DHT22;7290;50.854;4.354;2023-04-24T04:33:20;10.20;99.90
14411;DHT22;7290;50.854;4.354;2023-04-24T04:35:46;10.20;99.90
14411;DHT22;7290;50.854;4.354;2023-04-24T04:38:14;10.20;99.90
14411;DHT22;7290;50.854;4.354;2023-04-24T04:40:40;10.20;99.90
14411;DHT22;7290;50.854;4.354;2023-04-24T04:43:06;10.10;99.90
14411;DHT22;7290;50.854;4.354;2023-04-24T04:45:32;10.10;99.90
14411;DHT22;7290;50.854;4.354;2023-04-24T04:48:00;10.00;99.90
14411;DHT22;7290;50.854;4.354;2023-04-24T04:50:27;9.90;99.90
14411;DHT22;7290;50.854;4.354;2023-04-24T04:52:53;9.90;99.90
14411;DHT22;7290;50.854;4.354;2023-04-24T04:55:20;9.90;99.90
14411;DHT22;7290;50.854;4.354;2023-04-24T04:57:46;9.80;99.90
14411;DHT22;7290;50.854;4.354;2023-04-24T05:00:13;9.70;99.90
14411;DHT22;7290;50.854;4.354;2023-04-24T05:02:39;9.70;99.90
14411;DHT22;7290;50.854;4.354;2023-04-24T05:05:07;9.80;99.90
14411;DHT22;7290;50.854;4.354;2023-04-24T05:07:34;9.80;99.90
14411;DHT22;7290;50.854;4.354;2023-04-24T05:10:00;9.90;99.90
14411;DHT22;7290;50.854;4.354;2023-04-24T05:12:26;9.90;99.90
14411;DHT22;7290;50.854;4.354;2023-04-24T05:14:52;9.90;99.90
14411;DHT22;7290;50.854;4.354;2023-04-24T05:17:18;9.80;99.90
14411;DHT22;7290;50.854;4.354;2023-04-24T05:19:44;9.70;99.90
14411;DHT22;7290;50.854;4.354;2023-04-24T05:22:12;9.80;99.90
14411;DHT22;7290;50.854;4.354;2023-04-24T05:24:38;9.70;99.90
14411;DHT22;7290;50.854;4.354;2023-04-24T05:27:04;9.80;99.90
14411;DHT22;7290;50.854;4.354;2023-04-24T05:29:31;9.80;99.90
14411;DHT22;7290;50.854;4.354;2023-04-24T05:31:58;9.70;99.90
14411;DHT22;7290;50.854;4.354;2023-04-24T05:34:25;9.70;99.90
14411;DHT22;7290;50.854;4.354;2023-04-24T05:36:51;9.70;99.90
14411;DHT22;7290;50.854;4.354;2023-04-24T05:39:18;9.80;99.90
14411;DHT22;7290;50.854;4.354;2023-04-24T05:41:45;9.90;99.90
14411;DHT22;7290;50.854;4.354;2023-04-24T05:44:11;9.90;99.90
14411;DHT22;7290;50.854;4.354;2023-04-24T05:46:37;9.70;99.90
14411;DHT22;7290;50.854;4.354;2023-04-24T05:49:03;9.70;99.90
14411;DHT22;7290;50.854;4.354;2023-04-24T05:51:30;9.80;99.90
14411;DHT22;7290;50.854;4.354;2023-04-24T05:53:57;9.90;99.90
14411;DHT22;7290;50.854;4.354;2023-04-24T05:56:24;9.90;99.90
14411;DHT22;7290;50.854;4.354;2023-04-24T05:58:50;9.80;99.90
14411;DHT22;7290;50.854;4.354;2023-04-24T06:01:16;9.80;99.90
14411;DHT22;7290;50.854;4.354;2023-04-24T06:03:42;9.80;99.90
14411;DHT22;7290;50.854;4.354;2023-04-24T06:06:08;9.80;99.90
14411;DHT22;7290;50.854;4.354;2023-04-24T06:08:35;9.70;99.90
14411;DHT22;7290;50.854;4.354;2023-04-24T06:11:01;9.70;99.90
14411;DHT22;7290;50.854;4.354;2023-04-24T06:13:28;9.80;99.90
14411;DHT22;7290;50.854;4.354;2023-04-24T06:15:54;9.60;99.90
14411;DHT22;7290;50.854;4.354;2023-04-24T06:18:20;9.70;99.90
14411;DHT22;7290;50.854;4.354;2023-04-24T06:20:47;9.70;99.90
14411;DHT22;7290;50.854;4.354;2023-04-24T06:23:13;9.70;99.90
14411;DHT22;7290;50.854;4.354;2023-04-24T06:25:39;9.70;99.90
14411;DHT22;7290;50.854;4.354;2023-04-24T06:28:05;9.70;99.90
14411;DHT22;7290;50.854;4.354;2023-04-24T06:30:32;9.80;99.90
14411;DHT22;7290;50.854;4.354;2023-04-24T06:32:58;9.80;99.90
14411;DHT22;7290;50.854;4.354;2023-04-24T06:35:24;9.70;99.90
14411;DHT22;7290;50.854;4.354;2023-04-24T06:37:51;9.70;99.90
14411;DHT22;7290;50.854;4.354;2023-04-24T06:40:17;9.70;99.90
14411;DHT22;7290;50.854;4.354;2023-04-24T06:42:44;9.60;99.90
14411;DHT22;7290;50.854;4.354;2023-04-24T06:45:10;9.50;99.90
14411;DHT22;7290;50.854;4.354;2023-04-24T06:47:37;9.60;99.90
14411;DHT22;7290;50.854;4.354;2023-04-24T06:50:04;9.70;99.90
14411;DHT22;7290;50.854;4.354;2023-04-24T06:52:30;9.80;99.90
14411;DHT22;7290;50.854;4.354;2023-04-24T06:55:00;9.90;99.90
14411;DHT22;7290;50.854;4.354;2023-04-24T06:57:26;9.90;99.90
14411;DHT22;7290;50.854;4.354;2023-04-24T06:59:53;10.20;99.90
14411;DHT22;7290;50.854;4.354;2023-04-24T07:02:19;10.30;99.90
14411;DHT22;7290;50.854;4.354;2023-04-24T07:04:46;10.30;99.90
14411;DHT22;7290;50.854;4.354;2023-04-24T07:07:13;10.20;99.90
14411;DHT22;7290;50.854;4.354;2023-04-24T07:09:40;10.10;99.90
14411;DHT22;7290;50.854;4.354;2023-04-24T07:12:07;10.20;99.90
14411;DHT22;7290;50.854;4.354;2023-04-24T07:14:33;10.20;99.90
14411;DHT22;7290;50.854;4.354;2023-04-24T07:17:00;10.20;99.90
14411;DHT22;7290;50.854;4.354;2023-04-24T07:19:26;10.30;99.90
14411;DHT22;7290;50.854;4.354;2023-04-24T07:21:53;10.60;99.90
14411;DHT22;7290;50.854;4.354;2023-04-24T07:24:20;11.20;99.90
14411;DHT22;7290;50.854;4.354;2023-04-24T07:26:46;11.20;99.90
14411;DHT22;7290;50.854;4.354;2023-04-24T07:29:13;11.20;99.90
14411;DHT22;7290;50.854;4.354;2023-04-24T07:31:39;11.00;99.90
14411;DHT22;7290;50.854;4.354;2023-04-24T07:34:06;10.90;99.90
14411;DHT22;7290;50.854;4.354;2023-04-24T07:36:32;10.80;99.90
14411;DHT22;7290;50.854;4.354;2023-04-24T07:38:59;10.50;99.90
14411;DHT22;7290;50.854;4.354;2023-04-24T07:41:25;10.70;99.90
14411;DHT22;7290;50.854;4.354;2023-04-24T07:43:53;10.80;99.90
14411;DHT22;7290;50.854;4.354;2023-04-24T07:46:19;10.50;99.90
14411;DHT22;7290;50.854;4.354;2023-04-24T07:48:45;10.20;99.90
14411;DHT22;7290;50.854;4.354;2023-04-24T07:51:13;10.30;99.90
14411;DHT22;7290;50.854;4.354;2023-04-24T07:53:39;10.30;99.90
14411;DHT22;7290;50.854;4.354;2023-04-24T07:56:06;10.40;99.90
14411;DHT22;7290;50.854;4.354;2023-04-24T07:58:38;10.60;99.90
14411;DHT22;7290;50.854;4.354;2023-04-24T08:01:05;10.60;99.90
14411;DHT22;7290;50.854;4.354;2023-04-24T08:03:31;10.80;99.90
14411;DHT22;7290;50.854;4.354;2023-04-24T08:05:57;11.10;99.90
14411;DHT22;7290;50.854;4.354;2023-04-24T08:08:23;11.20;99.90
14411;DHT22;7290;50.854;4.354;2023-04-24T08:10:49;11.20;99.90
14411;DHT22;7290;50.854;4.354;2023-04-24T08:13:16;10.90;99.90
14411;DHT22;7290;50.854;4.354;2023-04-24T08:15:42;10.80;99.90
14411;DHT22;7290;50.854;4.354;2023-04-24T08:18:08;10.70;99.90
14411;DHT22;7290;50.854;4.354;2023-04-24T08:20:37;10.70;99.90
14411;DHT22;7290;50.854;4.354;2023-04-24T08:23:03;10.90;99.90
14411;DHT22;7290;50.854;4.354;2023-04-24T08:25:29;11.20;99.90
14411;DHT22;7290;50.854;4.354;2023-04-24T08:27:55;11.50;99.90
14411;DHT22;7290;50.854;4.354;2023-04-24T08:30:22;11.70;99.90
14411;DHT22;7290;50.854;4.354;2023-04-24T08:32:48;11.80;99.90
14411;DHT22;7290;50.854;4.354;2023-04-24T08:35:14;11.60;99.90
14411;DHT22;7290;50.854;4.354;2023-04-24T08:37:40;11.60;99.90
14411;DHT22;7290;50.854;4.354;2023-04-24T08:40:14;11.50;99.90
14411;DHT22;7290;50.854;4.354;2023-04-24T08:42:42;11.60;99.90
14411;DHT22;7290;50.854;4.354;2023-04-24T08:45:09;11.60;99.90
14411;DHT22;7290;50.854;4.354;2023-04-24T08:47:38;12.50;99.90
14411;DHT22;7290;50.854;4.354;2023-04-24T08:50:05;14.10;99.90
14411;DHT22;7290;50.854;4.354;2023-04-24T08:52:34;14.80;99.90
14411;DHT22;7290;50.854;4.354;2023-04-24T08:55:00;15.40;99.90
14411;DHT22;7290;50.854;4.354;2023-04-24T08:57:27;15.80;99.90
14411;DHT22;7290;50.854;4.354;2023-04-24T08:59:54;16.40;99.90
14411;DHT22;7290;50.854;4.354;2023-04-24T09:02:21;17.10;99.90
14411;DHT22;7290;50.854;4.354;2023-04-24T09:04:48;17.20;99.90
14411;DHT22;7290;50.854;4.354;2023-04-24T09:07:16;18.00;99.90
14411;DHT22;7290;50.854;4.354;2023-04-24T09:09:42;17.50;99.90
14411;DHT22;7290;50.854;4.354;2023-04-24T09:12:09;16.50;99.90
14411;DHT22;7290;50.854;4.354;2023-04-24T09:14:36;17.00;99.90
14411;DHT22;7290;50.854;4.354;2023-04-24T09:17:04;16.10;99.90
14411;DHT22;7290;50.854;4.354;2023-04-24T09:19:32;15.50;99.90
14411;DHT22;7290;50.854;4.354;2023-04-24T09:21:58;15.90;99.90
14411;DHT22;7290;50.854;4.354;2023-04-24T09:24:24;16.00;99.90
14411;DHT22;7290;50.854;4.354;2023-04-24T09:26:56;14.70;99.90
14411;DHT22;7290;50.854;4.354;2023-04-24T09:29:23;13.60;99.90
14411;DHT22;7290;50.854;4.354;2023-04-24T09:31:49;12.90;99.90
14411;DHT22;7290;50.854;4.354;2023-04-24T09:34:21;12.60;99.90
14411;DHT22;7290;50.854;4.354;2023-04-24T09:36:48;12.60;99.90
14411;DHT22;7290;50.854;4.354;2023-04-24T09:39:16;12.80;99.90
14411;DHT22;7290;50.854;4.354;2023-04-24T09:41:46;12.90;99.90
14411;DHT22;7290;50.854;4.354;2023-04-24T09:44:14;12.70;99.90
14411;DHT22;7290;50.854;4.354;2023-04-24T09:46:41;14.10;99.90
14411;DHT22;7290;50.854;4.354;2023-04-24T09:49:08;15.20;99.90
14411;DHT22;7290;50.854;4.354;2023-04-24T09:51:37;15.20;99.90
14411;DHT22;7290;50.854;4.354;2023-04-24T09:54:03;14.50;99.90
14411;DHT22;7290;50.854;4.354;2023-04-24T09:56:33;13.80;99.90
14411;DHT22;7290;50.854;4.354;2023-04-24T09:59:04;13.50;99.90
14411;DHT22;7290;50.854;4.354;2023-04-24T10:01:31;13.40;99.90
14411;DHT22;7290;50.854;4.354;2023-04-24T10:03:57;13.60;99.90
14411;DHT22;7290;50.854;4.354;2023-04-24T10:06:31;13.50;99.90
14411;DHT22;7290;50.854;4.354;2023-04-24T10:08:57;13.60;99.90
14411;DHT22;7290;50.854;4.354;2023-04-24T10:11:24;13.70;99.90
14411;DHT22;7290;50.854;4.354;2023-04-24T10:13:51;13.70;99.90
14411;DHT22;7290;50.854;4.354;2023-04-24T10:16:17;13.20;99.90
14411;DHT22;7290;50.854;4.354;2023-04-24T10:18:44;13.10;99.90
14411;DHT22;7290;50.854;4.354;2023-04-24T10:21:11;12.90;99.90
14411;DHT22;7290;50.854;4.354;2023-04-24T10:23:38;12.90;99.90
14411;DHT22;7290;50.854;4.354;2023-04-24T10:26:05;12.70;99.90
14411;DHT22;7290;50.854;4.354;2023-04-24T10:28:32;12.60;99.90
14411;DHT22;7290;50.854;4.354;2023-04-24T10:31:00;12.90;99.90
14411;DHT22;7290;50.854;4.354;2023-04-24T10:33:26;13.80;99.90
14411;DHT22;7290;50.854;4.354;2023-04-24T10:35:53;14.80;99.90
14411;DHT22;7290;50.854;4.354;2023-04-24T10:38:23;14.40;99.90
14411;DHT22;7290;50.854;4.354;2023-04-24T10:40:50;15.30;99.90
14411;DHT22;7290;50.854;4.354;2023-04-24T10:43:17;14.70;99.90
14411;DHT22;7290;50.854;4.354;2023-04-24T10:46:00;15.40;99.90
14411;DHT22;7290;50.854;4.354;2023-04-24T10:48:27;15.40;99.90
14411;DHT22;7290;50.854;4.354;2023-04-24T10:50:53;14.80;99.90
14411;DHT22;7290;50.854;4.354;2023-04-24T10:53:21;14.40;99.90
14411;DHT22;7290;50.854;4.354;2023-04-24T10:55:49;13.90;99.90
14411;DHT22;7290;50.854;4.354;2023-04-24T10:58:16;13.20;99.90
14411;DHT22;7290;50.854;4.354;2023-04-24T11:00:43;13.30;99.90
14411;DHT22;7290;50.854;4.354;2023-04-24T11:03:24;13.50;99.90
14411;DHT22;7290;50.854;4.354;2023-04-24T11:05:57;13.60;99.90
14411;DHT22;7290;50.854;4.354;2023-04-24T11:08:25;13.50;99.90
14411;DHT22;7290;50.854;4.354;2023-04-24T11:10:57;13.70;99.90
14411;DHT22;7290;50.854;4.354;2023-04-24T11:13:24;13.90;99.90
14411;DHT22;7290;50.854;4.354;2023-04-24T11:16:14;13.50;99.90
14411;DHT22;7290;50.854;4.354;2023-04-24T11:18:42;13.40;99.90
14411;DHT22;7290;50.854;4.354;2023-04-24T11:21:11;13.50;99.90
14411;DHT22;7290;50.854;4.354;2023-04-24T11:23:38;13.40;99.90
14411;DHT22;7290;50.854;4.354;2023-04-24T11:26:10;13.60;99.90
14411;DHT22;7290;50.854;4.354;2023-04-24T11:28:44;13.90;99.90
14411;DHT22;7290;50.854;4.354;2023-04-24T11:31:34;14.20;99.90
14411;DHT22;7290;50.854;4.354;2023-04-24T11:34:07;13.70;99.90
14411;DHT22;7290;50.854;4.354;2023-04-24T11:36:33;13.50;99.90
14411;DHT22;7290;50.854;4.354;2023-04-24T11:39:00;14.20;99.90
14411;DHT22;7290;50.854;4.354;2023-04-24T11:41:27;15.20;99.90
14411;DHT22;7290;50.854;4.354;2023-04-24T11:43:54;14.60;99.90
14411;DHT22;7290;50.854;4.354;2023-04-24T11:46:21;15.00;99.90
14411;DHT22;7290;50.854;4.354;2023-04-24T11:48:47;15.20;99.90
14411;DHT22;7290;50.854;4.354;2023-04-24T11:51:14;15.20;99.90
14411;DHT22;7290;50.854;4.354;2023-04-24T11:53:40;14.40;99.90
14411;DHT22;7290;50.854;4.354;2023-04-24T11:56:08;14.80;99.90
14411;DHT22;7290;50.854;4.354;2023-04-24T11:58:35;15.50;99.90
14411;DHT22;7290;50.854;4.354;2023-04-24T12:01:02;16.10;99.90
14411;DHT22;7290;50.854;4.354;2023-04-24T12:03:28;16.90;99.90
14411;DHT22;7290;50.854;4.354;2023-04-24T12:06:04;16.40;99.90
14411;DHT22;7290;50.854;4.354;2023-04-24T12:08:32;15.80;99.90
14411;DHT22;7290;50.854;4.354;2023-04-24T12:11:00;15.00;99.90
14411;DHT22;7290;50.854;4.354;2023-04-24T12:13:26;15.10;99.90
14411;DHT22;7290;50.854;4.354;2023-04-24T12:15:52;15.70;99.90
14411;DHT22;7290;50.854;4.354;2023-04-24T12:18:19;15.90;99.90
14411;DHT22;7290;50.854;4.354;2023-04-24T12:20:47;15.10;99.90
14411;DHT22;7290;50.854;4.354;2023-04-24T12:23:13;14.70;99.90
14411;DHT22;7290;50.854;4.354;2023-04-24T12:25:40;15.00;99.90
14411;DHT22;7290;50.854;4.354;2023-04-24T12:28:10;15.00;99.90
14411;DHT22;7290;50.854;4.354;2023-04-24T12:30:40;14.60;99.90
14411;DHT22;7290;50.854;4.354;2023-04-24T12:33:06;14.50;99.90
14411;DHT22;7290;50.854;4.354;2023-04-24T12:35:33;14.50;99.90
14411;DHT22;7290;50.854;4.354;2023-04-24T12:38:05;14.50;99.90
14411;DHT22;7290;50.854;4.354;2023-04-24T12:40:33;14.70;99.90
14411;DHT22;7290;50.854;4.354;2023-04-24T12:43:00;14.80;99.90
14411;DHT22;7290;50.854;4.354;2023-04-24T12:45:26;14.30;99.90
14411;DHT22;7290;50.854;4.354;2023-04-24T12:47:53;14.00;99.90
14411;DHT22;7290;50.854;4.354;2023-04-24T12:50:20;13.80;99.90
14411;DHT22;7290;50.854;4.354;2023-04-24T12:52:46;13.90;99.90
14411;DHT22;7290;50.854;4.354;2023-04-24T12:55:12;14.20;99.90
14411;DHT22;7290;50.854;4.354;2023-04-24T12:57:39;14.10;99.90
14411;DHT22;7290;50.854;4.354;2023-04-24T13:00:08;13.90;99.90
14411;DHT22;7290;50.854;4.354;2023-04-24T13:02:34;14.30;99.90
14411;DHT22;7290;50.854;4.354;2023-04-24T13:05:01;14.50;99.90
14411;DHT22;7290;50.854;4.354;2023-04-24T13:07:28;14.60;99.90
14411;DHT22;7290;50.854;4.354;2023-04-24T13:09:55;14.70;99.90
14411;DHT22;7290;50.854;4.354;2023-04-24T13:12:21;15.00;99.90
14411;DHT22;7290;50.854;4.354;2023-04-24T13:14:49;15.00;99.90
14411;DHT22;7290;50.854;4.354;2023-04-24T13:17:16;15.10;99.90
14411;DHT22;7290;50.854;4.354;2023-04-24T13:19:43;14.70;99.90
14411;DHT22;7290;50.854;4.354;2023-04-24T13:22:11;14.40;99.90
14411;DHT22;7290;50.854;4.354;2023-04-24T13:24:38;14.60;99.90
14411;DHT22;7290;50.854;4.354;2023-04-24T13:27:06;14.40;99.90
14411;DHT22;7290;50.854;4.354;2023-04-24T13:29:32;14.30;99.90
14411;DHT22;7290;50.854;4.354;2023-04-24T13:31:58;14.20;99.90
14411;DHT22;7290;50.854;4.354;2023-04-24T13:34:26;14.30;99.90
14411;DHT22;7290;50.854;4.354;2023-04-24T13:36:53;14.30;99.90
14411;DHT22;7290;50.854;4.354;2023-04-24T13:39:20;14.50;99.90
14411;DHT22;7290;50.854;4.354;2023-04-24T13:41:46;14.60;99.90
14411;DHT22;7290;50.854;4.354;2023-04-24T13:44:13;14.50;99.90
14411;DHT22;7290;50.854;4.354;2023-04-24T13:46:40;14.40;99.90
14411;DHT22;7290;50.854;4.354;2023-04-24T13:49:06;14.70;99.90
14411;DHT22;7290;50.854;4.354;2023-04-24T13:51:33;14.60;99.90
14411;DHT22;7290;50.854;4.354;2023-04-24T13:53:59;14.50;99.90
14411;DHT22;7290;50.854;4.354;2023-04-24T13:56:26;14.90;99.90
14411;DHT22;7290;50.854;4.354;2023-04-24T13:58:52;15.20;99.90
14411;DHT22;7290;50.854;4.354;2023-04-24T14:01:19;15.00;99.90
14411;DHT22;7290;50.854;4.354;2023-04-24T14:03:46;15.20;99.90
14411;DHT22;7290;50.854;4.354;2023-04-24T14:06:13;14.70;99.90
14411;DHT22;7290;50.854;4.354;2023-04-24T14:08:39;14.60;99.90
14411;DHT22;7290;50.854;4.354;2023-04-24T14:11:06;14.50;99.90
14411;DHT22;7290;50.854;4.354;2023-04-24T14:13:32;14.50;99.90
14411;DHT22;7290;50.854;4.354;2023-04-24T14:15:58;14.50;99.90
14411;DHT22;7290;50.854;4.354;2023-04-24T14:18:24;14.70;99.90
14411;DHT22;7290;50.854;4.354;2023-04-24T14:20:52;14.50;99.90
14411;DHT22;7290;50.854;4.354;2023-04-24T14:23:18;14.30;99.90
14411;DHT22;7290;50.854;4.354;2023-04-24T14:25:45;14.30;99.90
14411;DHT22;7290;50.854;4.354;2023-04-24T14:28:11;14.60;99.90
14411;DHT22;7290;50.854;4.354;2023-04-24T14:30:37;14.90;99.90
14411;DHT22;7290;50.854;4.354;2023-04-24T14:33:03;14.80;99.90
14411;DHT22;7290;50.854;4.354;2023-04-24T14:35:29;14.60;99.90
14411;DHT22;7290;50.854;4.354;2023-04-24T14:37:56;14.40;99.90
14411;DHT22;7290;50.854;4.354;2023-04-24T14:40:23;14.30;99.90
14411;DHT22;7290;50.854;4.354;2023-04-24T14:42:49;14.20;99.90
14411;DHT22;7290;50.854;4.354;2023-04-24T14:45:16;14.10;99.90
14411;DHT22;7290;50.854;4.354;2023-04-24T14:47:43;13.90;99.90
14411;DHT22;7290;50.854;4.354;2023-04-24T14:50:09;13.80;99.90
14411;DHT22;7290;50.854;4.354;2023-04-24T14:52:35;14.00;99.90
14411;DHT22;7290;50.854;4.354;2023-04-24T14:55:01;14.00;99.90
14411;DHT22;7290;50.854;4.354;2023-04-24T14:57:27;13.90;99.90
14411;DHT22;7290;50.854;4.354;2023-04-24T14:59:54;13.80;99.90
14411;DHT22;7290;50.854;4.354;2023-04-24T15:02:20;13.90;99.90
14411;DHT22;7290;50.854;4.354;2023-04-24T15:04:46;14.00;99.90
14411;DHT22;7290;50.854;4.354;2023-04-24T15:07:12;14.10;99.90
14411;DHT22;7290;50.854;4.354;2023-04-24T15:09:38;14.40;99.90
14411;DHT22;7290;50.854;4.354;2023-04-24T15:12:05;14.40;99.90
14411;DHT22;7290;50.854;4.354;2023-04-24T15:14:31;14.20;99.90
14411;DHT22;7290;50.854;4.354;2023-04-24T15:16:58;14.20;99.90
14411;DHT22;7290;50.854;4.354;2023-04-24T15:19:24;14.30;99.90
14411;DHT22;7290;50.854;4.354;2023-04-24T15:21:50;14.00;99.90
14411;DHT22;7290;50.854;4.354;2023-04-24T15:24:16;14.00;99.90
14411;DHT22;7290;50.854;4.354;2023-04-24T15:26:42;14.30;99.90
14411;DHT22;7290;50.854;4.354;2023-04-24T15:29:08;14.50;99.90
14411;DHT22;7290;50.854;4.354;2023-04-24T15:31:34;14.60;99.90
14411;DHT22;7290;50.854;4.354;2023-04-24T15:34:05;14.50;99.90
14411;DHT22;7290;50.854;4.354;2023-04-24T15:36:32;14.20;99.90
14411;DHT22;7290;50.854;4.354;2023-04-24T15:38:58;14.00;99.90
14411;DHT22;7290;50.854;4.354;2023-04-24T15:41:24;13.80;99.90
14411;DHT22;7290;50.854;4.354;2023-04-24T15:43:50;13.70;99.90
14411;DHT22;7290;50.854;4.354;2023-04-24T15:46:16;13.70;99.90
14411;DHT22;7290;50.854;4.354;2023-04-24T15:48:42;13.80;99.90